createdAt,value
2018-06-12T00:00:34.029Z,0
2018-06-12T00:01:33.520Z,0
2018-06-12T00:02:34.282Z,0
2018-06-12T00:03:34.315Z,0
2018-06-12T00:04:34.296Z,0
2018-06-12T00:05:34.056Z,0
2018-06-12T00:06:34.067Z,0
2018-06-12T00:07:34.038Z,0
2018-06-12T00:08:34.315Z,0
2018-06-12T00:09:33.786Z,0
2018-06-12T00:10:34.043Z,0
2018-06-12T00:11:34.369Z,0
2018-06-12T00:12:34.322Z,0
2018-06-12T00:13:34.302Z,0
2018-06-12T00:14:33.797Z,0
2018-06-12T00:15:34.049Z,0
2018-06-12T00:16:34.146Z,0
2018-06-12T00:17:34.292Z,0
2018-06-12T00:18:34.315Z,0
2018-06-12T00:19:34.325Z,0
2018-06-12T00:20:34.315Z,0
2018-06-12T00:21:34.039Z,0
2018-06-12T00:22:34.044Z,0
2018-06-12T00:23:33.786Z,0
2018-06-12T00:24:34.044Z,0
2018-06-12T00:25:34.321Z,0
2018-06-12T00:26:33.922Z,0
2018-06-12T00:27:34.060Z,0
2018-06-12T00:28:34.076Z,0
2018-06-12T00:29:34.329Z,0
2018-06-12T00:30:34.342Z,0
2018-06-12T00:31:34.153Z,0
2018-06-12T00:32:34.051Z,0
2018-06-12T00:33:34.060Z,0
2018-06-12T00:34:34.065Z,0
2018-06-12T00:35:34.337Z,0
2018-06-12T00:36:34.332Z,0
2018-06-12T00:37:34.077Z,0
2018-06-12T00:38:34.075Z,0
2018-06-12T00:39:34.333Z,0
2018-06-12T00:40:34.329Z,0
2018-06-12T00:41:35.355Z,0
2018-06-12T00:42:34.074Z,0
2018-06-12T00:43:34.340Z,0
2018-06-12T00:44:34.089Z,0
2018-06-12T00:45:34.085Z,0
2018-06-12T00:46:34.128Z,0
2018-06-12T00:47:34.378Z,0
2018-06-12T00:48:33.838Z,0
2018-06-12T00:49:34.081Z,0
2018-06-12T00:50:34.094Z,0
2018-06-12T00:51:33.845Z,0
2018-06-12T00:52:34.096Z,0
2018-06-12T00:53:34.368Z,0
2018-06-12T00:54:33.850Z,0
2018-06-12T00:55:34.353Z,0
2018-06-12T00:56:34.392Z,0
2018-06-12T00:57:33.844Z,0
2018-06-12T00:58:34.369Z,0
2018-06-12T00:59:34.368Z,0
2018-06-12T01:00:34.115Z,0
2018-06-12T01:01:34.418Z,0
2018-06-12T01:02:34.384Z,0
2018-06-12T01:03:33.865Z,0
2018-06-12T01:04:34.123Z,0
2018-06-12T01:05:34.121Z,0
2018-06-12T01:06:33.858Z,0
2018-06-12T01:07:34.400Z,0
2018-06-12T01:08:34.408Z,0
2018-06-12T01:09:33.985Z,0
2018-06-12T01:10:34.142Z,0
2018-06-12T01:11:34.455Z,0
2018-06-12T01:12:34.439Z,0
2018-06-12T01:13:34.150Z,0
2018-06-12T01:14:34.154Z,0
2018-06-12T01:15:34.181Z,0
2018-06-12T01:16:34.482Z,0
2018-06-12T01:17:33.886Z,0
2018-06-12T01:18:33.891Z,0
2018-06-12T01:19:34.141Z,0
2018-06-12T01:20:34.393Z,0
2018-06-12T01:21:34.405Z,0
2018-06-12T01:22:34.416Z,0
2018-06-12T01:23:34.158Z,0
2018-06-12T01:24:33.892Z,0
2018-06-12T01:25:34.478Z,0
2018-06-12T01:26:33.897Z,0
2018-06-12T01:27:34.423Z,0
2018-06-12T01:28:34.158Z,0
2018-06-12T01:29:33.908Z,0
2018-06-12T01:30:34.417Z,0
2018-06-12T01:31:34.236Z,0
2018-06-12T01:32:33.962Z,0
2018-06-12T01:33:34.432Z,0
2018-06-12T01:34:34.424Z,0
2018-06-12T01:35:34.449Z,0
2018-06-12T01:36:34.178Z,0
2018-06-12T01:37:34.185Z,0
2018-06-12T01:38:34.441Z,0
2018-06-12T01:39:33.917Z,0
2018-06-12T01:40:34.464Z,0
2018-06-12T01:41:34.505Z,0
2018-06-12T01:42:34.193Z,0
2018-06-12T01:43:33.935Z,0
2018-06-12T01:44:34.452Z,0
2018-06-12T01:45:34.206Z,0
2018-06-12T01:46:34.273Z,0
2018-06-12T01:47:34.202Z,0
2018-06-12T01:48:34.193Z,0
2018-06-12T01:49:34.212Z,0
2018-06-12T01:50:34.192Z,0
2018-06-12T01:51:34.331Z,0
2018-06-12T01:52:33.965Z,0
2018-06-12T01:53:34.202Z,0
2018-06-12T01:54:34.493Z,0
2018-06-12T01:55:34.217Z,0
2018-06-12T01:56:34.568Z,0
2018-06-12T01:57:34.527Z,0
2018-06-12T01:58:34.487Z,0
2018-06-12T01:59:34.511Z,0
2018-06-12T02:00:34.222Z,0
2018-06-12T02:01:33.824Z,0
2018-06-12T02:02:34.501Z,0
2018-06-12T02:03:33.974Z,0
2018-06-12T02:04:34.250Z,0
2018-06-12T02:05:34.502Z,0
2018-06-12T02:06:33.983Z,0
2018-06-12T02:07:34.509Z,0
2018-06-12T02:08:34.506Z,0
2018-06-12T02:09:34.243Z,0
2018-06-12T02:10:34.247Z,0
2018-06-12T02:11:33.980Z,0
2018-06-12T02:12:34.997Z,0
2018-06-12T02:13:34.513Z,0
2018-06-12T02:14:33.727Z,0
2018-06-12T02:15:34.242Z,0
2018-06-12T02:16:34.330Z,0
2018-06-12T02:17:34.256Z,0
2018-06-12T02:18:34.265Z,0
2018-06-12T02:19:33.744Z,0
2018-06-12T02:20:34.266Z,0
2018-06-12T02:21:34.008Z,0
2018-06-12T02:22:34.004Z,0
2018-06-12T02:23:34.008Z,0
2018-06-12T02:24:34.514Z,0
2018-06-12T02:25:34.001Z,0
2018-06-12T02:26:34.568Z,0
2018-06-12T02:27:34.530Z,0
2018-06-12T02:28:34.272Z,0
2018-06-12T02:29:34.279Z,0
2018-06-12T02:30:34.297Z,0
2018-06-12T02:31:34.284Z,0
2018-06-12T02:32:34.542Z,0
2018-06-12T02:33:34.296Z,0
2018-06-12T02:34:34.285Z,0
2018-06-12T02:35:34.532Z,0
2018-06-12T02:36:34.388Z,0
2018-06-12T02:37:34.313Z,0
2018-06-12T02:38:34.305Z,0
2018-06-12T02:39:34.545Z,0
2018-06-12T02:40:40.275Z,0
2018-06-12T02:41:34.592Z,4
2018-06-12T02:42:34.939Z,4
2018-06-12T02:43:34.073Z,4
2018-06-12T02:44:34.442Z,4
2018-06-12T02:45:34.317Z,4
2018-06-12T02:46:34.361Z,0
2018-06-12T02:47:34.305Z,0
2018-06-12T02:48:34.361Z,4
2018-06-12T02:49:34.324Z,4
2018-06-12T02:50:34.608Z,4
2018-06-12T02:51:34.391Z,4
2018-06-12T02:52:34.322Z,8
2018-06-12T02:53:34.651Z,4
2018-06-12T02:54:34.068Z,8
2018-06-12T02:55:34.352Z,8
2018-06-12T02:56:34.409Z,8
2018-06-12T02:57:34.605Z,12
2018-06-12T02:58:34.337Z,12
2018-06-12T02:59:34.318Z,16
2018-06-12T03:00:34.616Z,16
2018-06-12T03:01:34.069Z,20
2018-06-12T03:02:34.370Z,20
2018-06-12T03:03:34.616Z,24
2018-06-12T03:04:34.350Z,24
2018-06-12T03:05:34.356Z,24
2018-06-12T03:06:34.606Z,28
2018-06-12T03:07:34.372Z,32
2018-06-12T03:08:34.385Z,32
2018-06-12T03:09:34.098Z,32
2018-06-12T03:10:34.605Z,36
2018-06-12T03:11:34.356Z,40
2018-06-12T03:12:36.260Z,44
2018-06-12T03:13:34.375Z,44
2018-06-12T03:14:34.373Z,48
2018-06-12T03:15:34.378Z,52
2018-06-12T03:16:34.106Z,56
2018-06-12T03:17:34.377Z,64
2018-06-12T03:18:34.707Z,68
2018-06-12T03:19:34.145Z,72
2018-06-12T03:20:34.633Z,80
2018-06-12T03:21:34.704Z,88
2018-06-12T03:22:34.378Z,100
2018-06-12T03:23:34.671Z,108
2018-06-12T03:24:34.378Z,116
2018-06-12T03:25:34.373Z,132
2018-06-12T03:26:34.726Z,140
2018-06-12T03:27:34.654Z,144
2018-06-12T03:28:34.391Z,156
2018-06-12T03:29:34.676Z,156
2018-06-12T03:30:34.730Z,160
2018-06-12T03:31:34.786Z,168
2018-06-12T03:32:34.133Z,172
2018-06-12T03:33:34.410Z,180
2018-06-12T03:34:34.412Z,192
2018-06-12T03:35:34.150Z,204
2018-06-12T03:36:34.680Z,220
2018-06-12T03:37:34.409Z,244
2018-06-12T03:38:34.683Z,260
2018-06-12T03:39:34.399Z,280
2018-06-12T03:40:34.145Z,296
2018-06-12T03:41:34.450Z,312
2018-06-12T03:42:37.392Z,332
2018-06-12T03:43:34.417Z,356
2018-06-12T03:44:34.686Z,384
2018-06-12T03:45:34.713Z,412
2018-06-12T03:46:34.448Z,444
2018-06-12T03:47:34.437Z,480
2018-06-12T03:48:34.444Z,516
2018-06-12T03:49:34.426Z,548
2018-06-12T03:50:34.691Z,592
2018-06-12T03:51:34.793Z,640
2018-06-12T03:52:34.441Z,688
2018-06-12T03:53:34.429Z,732
2018-06-12T03:54:34.424Z,764
2018-06-12T03:55:34.433Z,780
2018-06-12T03:56:34.490Z,784
2018-06-12T03:57:34.224Z,768
2018-06-12T03:58:34.492Z,744
2018-06-12T03:59:34.455Z,720
2018-06-12T04:00:34.185Z,700
2018-06-12T04:01:34.285Z,696
2018-06-12T04:02:34.442Z,708
2018-06-12T04:03:34.467Z,736
2018-06-12T04:04:34.446Z,764
2018-06-12T04:05:34.730Z,800
2018-06-12T04:06:34.461Z,824
2018-06-12T04:07:34.197Z,828
2018-06-12T04:08:34.748Z,836
2018-06-12T04:09:33.943Z,832
2018-06-12T04:10:34.491Z,844
2018-06-12T04:11:34.741Z,872
2018-06-12T04:12:34.722Z,900
2018-06-12T04:13:33.958Z,904
2018-06-12T04:14:34.205Z,892
2018-06-12T04:15:34.470Z,872
2018-06-12T04:16:34.284Z,856
2018-06-12T04:17:34.475Z,860
2018-06-12T04:18:34.223Z,884
2018-06-12T04:19:34.481Z,932
2018-06-12T04:20:34.005Z,992
2018-06-12T04:21:34.221Z,1052
2018-06-12T04:22:34.221Z,1132
2018-06-12T04:23:34.795Z,1216
2018-06-12T04:24:34.491Z,1308
2018-06-12T04:25:34.490Z,1400
2018-06-12T04:26:34.491Z,1476
2018-06-12T04:27:34.768Z,1544
2018-06-12T04:28:34.844Z,1596
2018-06-12T04:29:34.500Z,1632
2018-06-12T04:30:34.790Z,1668
2018-06-12T04:31:34.273Z,1700
2018-06-12T04:32:34.529Z,1736
2018-06-12T04:33:34.272Z,1760
2018-06-12T04:34:34.237Z,1776
2018-06-12T04:35:34.771Z,1776
2018-06-12T04:36:34.503Z,1724
2018-06-12T04:37:34.518Z,1648
2018-06-12T04:38:34.528Z,1644
2018-06-12T04:39:34.783Z,1680
2018-06-12T04:40:34.811Z,1752
2018-06-12T04:41:34.076Z,1836
2018-06-12T04:42:34.266Z,1924
2018-06-12T04:43:35.320Z,2032
2018-06-12T04:44:34.825Z,2220
2018-06-12T04:45:34.805Z,2476
2018-06-12T04:46:34.547Z,2952
2018-06-12T04:47:34.524Z,3984
2018-06-12T04:48:34.826Z,6824
2018-06-12T04:49:34.282Z,6872
2018-06-12T04:50:34.536Z,8216
2018-06-12T04:51:34.388Z,8856
2018-06-12T04:52:34.548Z,6188
2018-06-12T04:53:34.828Z,5332
2018-06-12T04:54:34.567Z,5408
2018-06-12T04:55:34.566Z,5732
2018-06-12T04:56:34.295Z,6152
2018-06-12T04:57:34.283Z,6232
2018-06-12T04:58:34.587Z,6880
2018-06-12T04:59:34.570Z,7344
2018-06-12T05:00:34.560Z,8032
2018-06-12T05:01:34.310Z,7952
2018-06-12T05:02:34.564Z,9292
2018-06-12T05:03:34.068Z,7152
2018-06-12T05:04:34.864Z,5160
2018-06-12T05:05:34.580Z,4960
2018-06-12T05:06:34.606Z,4888
2018-06-12T05:07:34.321Z,4820
2018-06-12T05:08:34.894Z,4740
2018-06-12T05:09:34.607Z,4656
2018-06-12T05:10:35.071Z,4612
2018-06-12T05:11:34.668Z,4560
2018-06-12T05:12:34.610Z,4404
2018-06-12T05:13:34.094Z,4488
2018-06-12T05:14:34.351Z,4648
2018-06-12T05:15:34.633Z,5092
2018-06-12T05:16:34.372Z,5320
2018-06-12T05:17:34.381Z,4820
2018-06-12T05:18:34.933Z,4452
2018-06-12T05:19:34.959Z,4268
2018-06-12T05:20:34.647Z,4188
2018-06-12T05:21:34.922Z,4192
2018-06-12T05:22:34.630Z,4268
2018-06-12T05:23:34.384Z,4384
2018-06-12T05:24:34.127Z,4544
2018-06-12T05:25:35.124Z,4724
2018-06-12T05:26:34.939Z,4912
2018-06-12T05:27:34.658Z,5128
2018-06-12T05:28:34.669Z,5340
2018-06-12T05:29:34.418Z,5568
2018-06-12T05:30:34.703Z,5788
2018-06-12T05:31:34.952Z,5968
2018-06-12T05:32:34.157Z,6088
2018-06-12T05:33:34.178Z,6132
2018-06-12T05:34:34.705Z,6128
2018-06-12T05:35:34.996Z,6084
2018-06-12T05:36:34.427Z,5976
2018-06-12T05:37:34.730Z,5824
2018-06-12T05:38:34.717Z,5688
2018-06-12T05:39:34.451Z,5620
2018-06-12T05:40:34.970Z,5652
2018-06-12T05:41:34.972Z,5800
2018-06-12T05:42:34.707Z,5868
2018-06-12T05:43:34.977Z,5844
2018-06-12T05:44:34.769Z,5788
2018-06-12T05:45:34.744Z,5760
2018-06-12T05:46:34.737Z,5672
2018-06-12T05:47:35.000Z,5556
2018-06-12T05:48:34.764Z,5404
2018-06-12T05:49:34.474Z,5244
2018-06-12T05:50:34.755Z,5080
2018-06-12T05:51:35.143Z,4884
2018-06-12T05:52:34.214Z,4780
2018-06-12T05:53:34.764Z,4868
2018-06-12T05:54:34.487Z,4712
2018-06-12T05:55:34.489Z,4844
2018-06-12T05:56:34.856Z,5208
2018-06-12T05:57:35.030Z,5076
2018-06-12T05:58:34.796Z,4784
2018-06-12T05:59:34.785Z,4888
2018-06-12T06:00:35.058Z,4912
2018-06-12T06:01:34.818Z,4860
2018-06-12T06:02:34.790Z,5012
2018-06-12T06:03:34.802Z,5168
2018-06-12T06:04:34.518Z,5196
2018-06-12T06:05:34.526Z,5208
2018-06-12T06:06:35.041Z,5412
2018-06-12T06:07:34.787Z,5628
2018-06-12T06:08:35.061Z,5904
2018-06-12T06:09:34.808Z,6264
2018-06-12T06:10:35.203Z,7124
2018-06-12T06:11:34.897Z,7580
2018-06-12T06:12:34.806Z,7780
2018-06-12T06:13:34.853Z,8100
2018-06-12T06:14:34.885Z,8504
2018-06-12T06:15:34.834Z,8860
2018-06-12T06:16:35.090Z,8992
2018-06-12T06:17:34.571Z,8648
2018-06-12T06:18:35.107Z,8096
2018-06-12T06:19:35.113Z,8348
2018-06-12T06:20:34.859Z,8540
2018-06-12T06:21:34.969Z,8208
2018-06-12T06:22:35.398Z,8024
2018-06-12T06:23:34.874Z,8328
2018-06-12T06:24:34.865Z,8192
2018-06-12T06:25:34.873Z,7716
2018-06-12T06:26:34.951Z,7276
2018-06-12T06:27:34.871Z,7172
2018-06-12T06:28:34.614Z,7052
2018-06-12T06:29:34.949Z,6792
2018-06-12T06:30:34.883Z,6452
2018-06-12T06:31:34.890Z,6068
2018-06-12T06:32:34.894Z,5772
2018-06-12T06:33:35.160Z,5444
2018-06-12T06:34:34.923Z,5096
2018-06-12T06:35:35.182Z,4920
2018-06-12T06:36:35.189Z,4888
2018-06-12T06:37:35.173Z,4928
2018-06-12T06:38:35.199Z,4996
2018-06-12T06:39:35.172Z,5072
2018-06-12T06:40:35.167Z,5160
2018-06-12T06:41:35.014Z,5284
2018-06-12T06:42:34.956Z,5476
2018-06-12T06:43:36.494Z,5724
2018-06-12T06:44:34.662Z,5944
2018-06-12T06:45:34.674Z,6104
2018-06-12T06:46:35.202Z,6164
2018-06-12T06:47:34.964Z,6000
2018-06-12T06:48:35.215Z,5700
2018-06-12T06:49:34.950Z,5452
2018-06-12T06:50:34.961Z,5300
2018-06-12T06:51:35.230Z,5208
2018-06-12T06:52:34.944Z,5220
2018-06-12T06:53:35.341Z,5440
2018-06-12T06:54:34.969Z,5888
2018-06-12T06:55:34.975Z,6488
2018-06-12T06:56:35.209Z,6952
2018-06-12T06:57:34.696Z,7168
2018-06-12T06:58:34.720Z,7280
2018-06-12T06:59:35.262Z,7284
2018-06-12T07:00:35.241Z,7240
2018-06-12T07:01:35.006Z,7076
2018-06-12T07:02:34.996Z,6928
2018-06-12T07:03:34.782Z,6816
2018-06-12T07:04:35.237Z,6684
2018-06-12T07:05:35.262Z,6532
2018-06-12T07:06:35.268Z,6424
2018-06-12T07:07:35.024Z,6376
2018-06-12T07:08:35.275Z,6276
2018-06-12T07:09:35.300Z,6176
2018-06-12T07:10:35.267Z,6012
2018-06-12T07:11:35.312Z,5792
2018-06-12T07:12:35.026Z,5584
2018-06-12T07:13:35.289Z,5360
2018-06-12T07:14:36.329Z,5116
2018-06-12T07:15:35.028Z,4908
2018-06-12T07:16:35.302Z,4780
2018-06-12T07:17:34.815Z,4704
2018-06-12T07:18:35.283Z,4676
2018-06-12T07:19:34.779Z,4656
2018-06-12T07:20:35.287Z,4612
2018-06-12T07:21:35.297Z,4576
2018-06-12T07:22:35.305Z,4568
2018-06-12T07:23:34.793Z,4628
2018-06-12T07:24:35.052Z,4732
2018-06-12T07:25:35.058Z,4848
2018-06-12T07:26:35.094Z,4976
2018-06-12T07:27:35.326Z,5156
2018-06-12T07:28:35.083Z,5372
2018-06-12T07:29:35.091Z,5564
2018-06-12T07:30:35.070Z,5736
2018-06-12T07:31:35.096Z,5900
2018-06-12T07:32:35.092Z,6028
2018-06-12T07:33:35.119Z,6124
2018-06-12T07:34:35.351Z,6212
2018-06-12T07:35:35.105Z,6352
2018-06-12T07:36:35.099Z,6400
2018-06-12T07:37:35.510Z,6468
2018-06-12T07:38:34.850Z,6524
2018-06-12T07:39:34.886Z,6632
2018-06-12T07:40:35.388Z,6852
2018-06-12T07:41:35.170Z,7220
2018-06-12T07:42:35.376Z,7656
2018-06-12T07:43:35.647Z,8068
2018-06-12T07:44:36.466Z,8468
2018-06-12T07:45:35.399Z,8940
2018-06-12T07:46:35.157Z,9552
2018-06-12T07:47:35.157Z,10172
2018-06-12T07:48:34.900Z,10720
2018-06-12T07:49:35.463Z,11040
2018-06-12T07:50:34.916Z,10888
2018-06-12T07:51:35.163Z,10476
2018-06-12T07:52:35.168Z,9956
2018-06-12T07:53:35.167Z,9480
2018-06-12T07:54:35.176Z,9076
2018-06-12T07:55:35.181Z,8740
2018-06-12T07:56:35.229Z,8444
2018-06-12T07:57:35.186Z,8260
2018-06-12T07:58:35.450Z,8088
2018-06-12T07:59:35.206Z,7988
2018-06-12T08:00:35.228Z,7864
2018-06-12T08:01:35.211Z,7664
2018-06-12T08:02:35.473Z,7376
2018-06-12T08:03:35.474Z,7120
2018-06-12T08:04:35.476Z,6884
2018-06-12T08:05:35.479Z,6656
2018-06-12T08:06:35.251Z,6432
2018-06-12T08:07:35.231Z,6232
2018-06-12T08:08:35.242Z,6044
2018-06-12T08:09:35.230Z,5908
2018-06-12T08:10:35.491Z,5804
2018-06-12T08:11:35.500Z,5724
2018-06-12T08:12:35.239Z,5644
2018-06-12T08:13:35.276Z,5588
2018-06-12T08:14:35.016Z,5540
2018-06-12T08:15:35.325Z,5504
2018-06-12T08:16:35.014Z,5472
2018-06-12T08:17:35.528Z,5440
2018-06-12T08:18:35.694Z,5392
2018-06-12T08:19:35.045Z,5304
2018-06-12T08:20:35.311Z,5200
2018-06-12T08:21:35.535Z,5108
2018-06-12T08:22:35.292Z,5024
2018-06-12T08:23:35.564Z,4960
2018-06-12T08:24:34.782Z,4936
2018-06-12T08:25:35.371Z,4900
2018-06-12T08:26:35.640Z,4848
2018-06-12T08:27:35.317Z,4848
2018-06-12T08:28:34.832Z,4848
2018-06-12T08:29:35.630Z,4928
2018-06-12T08:30:35.631Z,5076
2018-06-12T08:31:35.089Z,5220
2018-06-12T08:32:35.590Z,5320
2018-06-12T08:33:35.359Z,5392
2018-06-12T08:34:35.341Z,5436
2018-06-12T08:35:35.780Z,5488
2018-06-12T08:36:35.344Z,5564
2018-06-12T08:37:35.615Z,5656
2018-06-12T08:38:35.368Z,5756
2018-06-12T08:39:35.625Z,5844
2018-06-12T08:40:35.107Z,5928
2018-06-12T08:41:35.650Z,6020
2018-06-12T08:42:35.385Z,6116
2018-06-12T08:43:35.423Z,6200
2018-06-12T08:44:35.136Z,6224
2018-06-12T08:45:35.648Z,6176
2018-06-12T08:46:35.909Z,6060
2018-06-12T08:47:35.391Z,5920
2018-06-12T08:48:35.180Z,5812
2018-06-12T08:49:35.135Z,5740
2018-06-12T08:50:34.908Z,5704
2018-06-12T08:51:35.393Z,5712
2018-06-12T08:52:34.908Z,5764
2018-06-12T08:53:35.415Z,5804
2018-06-12T08:54:35.167Z,5820
2018-06-12T08:55:35.164Z,5788
2018-06-12T08:56:35.207Z,5816
2018-06-12T08:57:35.458Z,5956
2018-06-12T08:58:34.931Z,6172
2018-06-12T08:59:35.691Z,6300
2018-06-12T09:00:35.449Z,6300
2018-06-12T09:01:35.481Z,6332
2018-06-12T09:02:35.499Z,6364
2018-06-12T09:03:35.776Z,6524
2018-06-12T09:04:35.186Z,6732
2018-06-12T09:05:35.721Z,6944
2018-06-12T09:06:35.453Z,7156
2018-06-12T09:07:35.205Z,7340
2018-06-12T09:08:35.469Z,7432
2018-06-12T09:09:34.976Z,7580
2018-06-12T09:10:35.220Z,7884
2018-06-12T09:11:35.752Z,8180
2018-06-12T09:12:35.483Z,8352
2018-06-12T09:13:35.755Z,8424
2018-06-12T09:14:35.733Z,8424
2018-06-12T09:15:36.297Z,8408
2018-06-12T09:16:35.763Z,8484
2018-06-12T09:17:35.507Z,8684
2018-06-12T09:18:35.511Z,8936
2018-06-12T09:19:35.552Z,9204
2018-06-12T09:20:35.756Z,9508
2018-06-12T09:21:35.257Z,9740
2018-06-12T09:22:35.511Z,10024
2018-06-12T09:23:35.533Z,10264
2018-06-12T09:24:35.525Z,10508
2018-06-12T09:25:35.270Z,10664
2018-06-12T09:26:35.554Z,10828
2018-06-12T09:27:35.535Z,11012
2018-06-12T09:28:35.572Z,11176
2018-06-12T09:29:35.536Z,11316
2018-06-12T09:30:35.281Z,11528
2018-06-12T09:31:35.871Z,12104
2018-06-12T09:32:35.286Z,13752
2018-06-12T09:33:35.327Z,15628
2018-06-12T09:34:35.061Z,15688
2018-06-12T09:35:35.339Z,16096
2018-06-12T09:36:35.585Z,14372
2018-06-12T09:37:35.304Z,13328
2018-06-12T09:38:35.836Z,12788
2018-06-12T09:39:35.581Z,13032
2018-06-12T09:40:35.415Z,14652
2018-06-12T09:41:35.594Z,12444
2018-06-12T09:42:35.335Z,11820
2018-06-12T09:43:35.869Z,13828
2018-06-12T09:44:35.353Z,12024
2018-06-12T09:45:35.874Z,11384
2018-06-12T09:46:35.706Z,11632
2018-06-12T09:47:35.663Z,15012
2018-06-12T09:48:35.624Z,11880
2018-06-12T09:49:35.664Z,11132
2018-06-12T09:50:35.910Z,10672
2018-06-12T09:51:35.664Z,10300
2018-06-12T09:52:35.383Z,10132
2018-06-12T09:53:35.915Z,10276
2018-06-12T09:54:35.917Z,9904
2018-06-12T09:55:35.397Z,9964
2018-06-12T09:56:35.671Z,10272
2018-06-12T09:57:35.673Z,10744
2018-06-12T09:58:35.432Z,11096
2018-06-12T09:59:35.692Z,11572
2018-06-12T10:00:35.453Z,12064
2018-06-12T10:01:35.513Z,11924
2018-06-12T10:02:35.706Z,11712
2018-06-12T10:03:35.709Z,11748
2018-06-12T10:04:35.466Z,11800
2018-06-12T10:05:35.979Z,12340
2018-06-12T10:06:35.790Z,16448
2018-06-12T10:07:35.998Z,17664
2018-06-12T10:08:35.754Z,17248
2018-06-12T10:09:35.731Z,16224
2018-06-12T10:10:35.769Z,14948
2018-06-12T10:11:35.997Z,16960
2018-06-12T10:12:35.536Z,17664
2018-06-12T10:13:36.019Z,15192
2018-06-12T10:14:35.879Z,14780
2018-06-12T10:15:36.837Z,13676
2018-06-12T10:16:35.823Z,14956
2018-06-12T10:17:35.774Z,16448
2018-06-12T10:18:36.035Z,17280
2018-06-12T10:19:35.524Z,17216
2018-06-12T10:20:35.808Z,16576
2018-06-12T10:21:35.637Z,13004
2018-06-12T10:22:35.552Z,13112
2018-06-12T10:53:39.178Z,19136
2018-06-12T10:54:39.426Z,17760
2018-06-12T10:55:39.188Z,17760
2018-06-12T10:56:39.355Z,17504
2018-06-12T10:57:39.237Z,18624
2018-06-12T10:58:39.468Z,18976
2018-06-12T10:59:39.468Z,18656
2018-06-12T11:00:39.464Z,18656
2018-06-12T11:01:39.211Z,16960
2018-06-12T11:02:39.806Z,16864
2018-06-12T11:03:39.309Z,16768
2018-06-12T11:04:39.511Z,16832
2018-06-12T11:05:38.956Z,16640
2018-06-12T11:06:39.591Z,16160
2018-06-12T11:07:39.524Z,15744
2018-06-12T11:08:39.548Z,15676
2018-06-12T11:09:39.240Z,14816
2018-06-12T11:10:39.261Z,14500
2018-06-12T11:11:39.259Z,14272
2018-06-12T11:12:39.531Z,14060
2018-06-12T11:13:39.850Z,14836
2018-06-12T11:14:39.289Z,15584
2018-06-12T11:15:39.286Z,14864
2018-06-12T11:16:39.396Z,11684
2018-06-12T11:17:39.289Z,10500
2018-06-12T11:18:39.554Z,9592
2018-06-12T11:19:39.582Z,8764
2018-06-12T11:20:39.340Z,8340
2018-06-12T11:21:39.585Z,7848
2018-06-12T11:22:39.875Z,7620
2018-06-12T11:23:40.398Z,7872
2018-06-12T11:24:39.344Z,6172
2018-06-12T11:25:39.714Z,5596
2018-06-12T11:26:40.007Z,5172
2018-06-12T11:27:39.889Z,4536
2018-06-12T11:28:39.874Z,3428
2018-06-12T11:29:39.351Z,2484
2018-06-12T11:30:39.381Z,1872
2018-06-12T11:31:39.641Z,1464
2018-06-12T11:32:39.397Z,1308
2018-06-12T11:33:39.668Z,1172
2018-06-12T11:34:39.930Z,1156
2018-06-12T11:35:39.697Z,1144
2018-06-12T11:36:39.660Z,1176
2018-06-12T11:37:39.669Z,1036
2018-06-12T11:38:39.922Z,812
2018-06-12T11:39:39.449Z,700
2018-06-12T11:40:39.917Z,632
2018-06-12T11:41:39.939Z,712
2018-06-12T11:42:39.967Z,912
2018-06-12T11:43:39.715Z,1180
2018-06-12T11:44:39.427Z,1372
2018-06-12T11:45:40.033Z,1420
2018-06-12T11:46:39.990Z,1372
2018-06-12T11:47:40.012Z,1364
2018-06-12T11:48:39.725Z,1304
2018-06-12T11:49:39.974Z,1352
2018-06-12T11:50:39.194Z,1312
2018-06-12T11:51:39.742Z,1188
2018-06-12T11:52:39.497Z,1108
2018-06-12T11:53:39.474Z,1036
2018-06-12T11:54:40.001Z,988
2018-06-12T11:55:39.726Z,980
2018-06-12T11:56:39.792Z,1008
2018-06-12T11:57:39.759Z,1012
2018-06-12T11:58:39.734Z,964
2018-06-12T11:59:39.742Z,904
2018-06-12T12:00:40.035Z,880
2018-06-12T12:01:40.000Z,892
2018-06-12T12:02:39.996Z,876
2018-06-12T12:03:39.484Z,788
2018-06-12T12:04:40.032Z,856
2018-06-12T12:05:40.153Z,872
2018-06-12T12:06:39.746Z,840
2018-06-12T12:07:39.502Z,776
2018-06-12T12:08:39.494Z,764
2018-06-12T12:09:39.734Z,788
2018-06-12T12:10:39.485Z,812
2018-06-12T12:11:39.772Z,836
2018-06-12T12:12:39.499Z,848
2018-06-12T12:13:40.020Z,824
2018-06-12T12:14:40.000Z,744
2018-06-12T12:15:39.772Z,656
2018-06-12T12:16:39.541Z,608
2018-06-12T12:17:39.771Z,600
2018-06-12T12:18:39.752Z,580
2018-06-12T12:19:39.741Z,520
2018-06-12T12:20:39.756Z,520
2018-06-12T12:21:39.558Z,580
2018-06-12T12:22:39.517Z,680
2018-06-12T12:23:40.052Z,748
2018-06-12T12:24:40.008Z,828
2018-06-12T12:25:39.775Z,948
2018-06-12T12:26:39.512Z,884
2018-06-12T12:27:39.535Z,812
2018-06-12T12:28:40.172Z,840
2018-06-12T12:29:39.781Z,964
2018-06-12T12:30:40.045Z,1128
2018-06-12T12:31:39.764Z,1196
2018-06-12T12:32:40.040Z,1240
2018-06-12T12:33:39.551Z,1248
2018-06-12T12:34:39.767Z,1228
2018-06-12T12:35:39.788Z,1228
2018-06-12T12:36:40.038Z,1240
2018-06-12T12:37:39.522Z,1224
2018-06-12T12:38:40.041Z,1220
2018-06-12T12:39:39.800Z,1192
2018-06-12T12:40:39.777Z,1184
2018-06-12T12:41:40.097Z,1280
2018-06-12T12:42:39.797Z,1380
2018-06-12T12:43:40.226Z,1432
2018-06-12T12:44:39.279Z,1456
2018-06-12T12:45:39.802Z,1452
2018-06-12T12:46:39.785Z,1476
2018-06-12T12:47:39.541Z,1496
2018-06-12T12:48:39.566Z,1536
2018-06-12T12:49:39.813Z,1612
2018-06-12T12:50:40.077Z,1712
2018-06-12T12:51:39.789Z,1796
2018-06-12T12:52:39.802Z,1856
2018-06-12T12:53:40.047Z,1968
2018-06-12T12:54:39.544Z,2104
2018-06-12T12:55:39.559Z,2236
2018-06-12T12:56:39.834Z,2348
2018-06-12T12:57:40.068Z,2400
2018-06-12T12:58:39.821Z,2448
2018-06-12T12:59:40.071Z,2472
2018-06-12T13:00:39.562Z,2460
2018-06-12T13:01:40.069Z,2464
2018-06-12T13:02:39.830Z,2348
2018-06-12T13:03:39.808Z,2160
2018-06-12T13:04:39.575Z,2112
2018-06-12T13:05:39.572Z,2260
2018-06-12T13:06:40.086Z,2636
2018-06-12T13:07:40.092Z,2948
2018-06-12T13:08:39.836Z,3112
2018-06-12T13:09:39.819Z,3100
2018-06-12T13:10:40.088Z,3020
2018-06-12T13:11:39.816Z,3028
2018-06-12T13:12:39.570Z,3016
2018-06-12T13:13:39.577Z,3032
2018-06-12T13:14:39.834Z,3096
2018-06-12T13:15:40.096Z,3136
2018-06-12T13:16:40.169Z,3148
2018-06-12T13:17:40.090Z,3100
2018-06-12T13:18:39.608Z,3056
2018-06-12T13:19:39.879Z,3072
2018-06-12T13:20:40.081Z,3076
2018-06-12T13:21:39.584Z,3076
2018-06-12T13:22:39.600Z,3092
2018-06-12T13:23:39.914Z,3112
2018-06-12T13:24:39.608Z,3160
2018-06-12T13:25:39.863Z,3256
2018-06-12T13:26:39.978Z,3388
2018-06-12T13:27:40.102Z,3516
2018-06-12T13:28:40.107Z,3668
2018-06-12T13:29:39.869Z,3832
2018-06-12T13:30:39.845Z,4032
2018-06-12T13:31:40.141Z,4296
2018-06-12T13:32:39.867Z,4508
2018-06-12T13:33:39.967Z,4812
2018-06-12T13:34:39.600Z,5364
2018-06-12T13:35:39.678Z,5816
2018-06-12T13:36:39.626Z,6224
2018-06-12T13:37:40.113Z,6276
2018-06-12T13:38:40.753Z,5824
2018-06-12T13:39:39.889Z,5472
2018-06-12T13:40:39.363Z,5316
2018-06-12T13:41:39.651Z,5400
2018-06-12T13:42:39.608Z,5440
2018-06-12T13:43:40.128Z,5064
2018-06-12T13:44:39.890Z,4976
2018-06-12T13:45:39.969Z,5296
2018-06-12T13:46:40.134Z,5556
2018-06-12T13:47:40.144Z,5340
2018-06-12T13:48:40.159Z,5044
2018-06-12T13:49:39.881Z,4944
2018-06-12T13:50:39.651Z,5208
2018-06-12T13:51:40.163Z,5304
2018-06-12T13:52:39.942Z,5488
2018-06-12T13:53:39.912Z,5760
2018-06-12T13:54:39.909Z,6116
2018-06-12T13:55:39.657Z,6220
2018-06-12T13:56:39.907Z,6284
2018-06-12T13:57:39.908Z,6372
2018-06-12T13:58:40.161Z,6428
2018-06-12T13:59:39.900Z,6468
2018-06-12T14:00:39.669Z,6468
2018-06-12T14:01:40.162Z,6440
2018-06-12T14:02:40.167Z,6360
2018-06-12T14:03:39.912Z,6236
2018-06-12T14:04:39.666Z,6048
2018-06-12T14:05:40.187Z,5816
2018-06-12T14:06:39.711Z,5624
2018-06-12T14:07:40.201Z,5468
2018-06-12T14:08:39.935Z,5320